Albuquerque (West), New Mexico
Current Conditions -  °F | °C
As of 4:35 AM on Monday 26 Jan 2015 (Local Time) from KAEG Reporting Station
Clear Clear  
Wind Chill: -7°   Ceiling: Unl
Heat Index: -3°   Visibility: 10mi
Dew Point: -6°   Wind: 6mph
Humidity: 81%   Direction: 330°NNW
Pressure: 30.36"   Gusts: NA
Location:  35.15°N, 106.8°W
Report Text: KAEG 261135Z AUTO 33005KT 10SM CLR M03/M06 A3036 RMK AO2 T10351064
Loading
Personal Weather Stations






























Interactive Weather Map New forecast layout! Learn more

10-Day Weather Forecast

Advertisements
Track Severe Weather on mobile